createdAt,value
2022-11-06T00:00:33.491Z,4.20
2022-11-06T00:03:02.697Z,4.35
2022-11-06T00:05:50.493Z,4.97
2022-11-06T00:08:29.867Z,4.50
2022-11-06T00:10:58.062Z,4.72
2022-11-06T00:13:26.458Z,4.38
2022-11-06T00:15:54.662Z,4.45
2022-11-06T00:18:22.716Z,4.60
2022-11-06T00:20:52.412Z,4.38
2022-11-06T00:23:20.550Z,4.32
2022-11-06T00:25:53.181Z,3.97
2022-11-06T00:28:21.410Z,4.45
2022-11-06T00:30:49.566Z,4.25
2022-11-06T00:33:17.712Z,4.28
2022-11-06T00:35:46.098Z,4.13
2022-11-06T00:38:15.792Z,4.53
2022-11-06T00:40:44.047Z,4.20
2022-11-06T00:43:12.202Z,4.32
2022-11-06T00:45:40.349Z,3.97
2022-11-06T00:48:08.510Z,4.00
2022-11-06T00:50:36.990Z,4.50
2022-11-06T00:53:05.220Z,3.97
2022-11-06T00:55:35.070Z,4.00
2022-11-06T00:58:03.489Z,4.32
2022-11-06T01:00:31.803Z,4.32
2022-11-06T01:03:00.009Z,3.72
2022-11-06T01:05:28.579Z,4.10
2022-11-06T01:07:56.739Z,3.92
2022-11-06T01:10:24.939Z,4.10
2022-11-06T01:12:54.719Z,3.50
2022-11-06T01:15:22.849Z,4.05
2022-11-06T01:17:51.065Z,4.00
2022-11-06T01:20:19.337Z,4.20
2022-11-06T01:22:47.487Z,4.15
2022-11-06T01:25:15.584Z,4.20
2022-11-06T01:27:43.958Z,3.80
2022-11-06T01:30:14.567Z,3.78
2022-11-06T01:32:42.776Z,4.10
2022-11-06T01:35:11.042Z,4.05
2022-11-06T01:37:39.217Z,3.92
2022-11-06T01:40:08.190Z,4.00
2022-11-06T01:42:36.532Z,4.50
2022-11-06T01:45:25.464Z,3.63
2022-11-06T01:47:53.843Z,4.10
2022-11-06T01:50:22.221Z,3.92
2022-11-06T01:52:51.937Z,3.80
2022-11-06T01:55:24.984Z,3.55
2022-11-06T01:57:53.600Z,3.65
2022-11-06T02:00:22.280Z,3.65
2022-11-06T02:02:52.322Z,3.47
2022-11-06T02:05:20.926Z,3.85
2022-11-06T02:07:49.893Z,3.80
2022-11-06T02:10:18.624Z,3.75
2022-11-06T02:12:59.722Z,3.72
2022-11-06T02:15:36.541Z,3.53
2022-11-06T02:18:32.421Z,3.88
2022-11-06T02:21:26.107Z,3.38
2022-11-06T02:24:19.877Z,3.92
2022-11-06T02:27:04.063Z,3.60
2022-11-06T02:29:38.098Z,4.13
2022-11-06T02:32:11.896Z,4.05
2022-11-06T02:34:42.630Z,3.92
2022-11-06T02:37:16.265Z,3.97
2022-11-06T02:42:18.593Z,3.92
2022-11-06T02:44:50.190Z,4.10
2022-11-06T02:47:20.964Z,3.63
2022-11-06T02:49:54.163Z,4.00
2022-11-06T02:52:26.823Z,4.10
2022-11-06T02:55:01.154Z,3.65
2022-11-06T02:57:36.301Z,4.47
2022-11-06T03:00:07.985Z,3.95
2022-11-06T03:02:41.084Z,4.20
2022-11-06T03:05:14.729Z,3.97
2022-11-06T03:07:49.386Z,3.83
2022-11-06T03:10:18.168Z,3.90
2022-11-06T03:12:56.922Z,3.83
2022-11-06T03:15:34.310Z,4.47
2022-11-06T03:18:12.439Z,4.00
2022-11-06T03:20:47.047Z,4.07
2022-11-06T03:23:19.592Z,3.67
2022-11-06T03:25:54.383Z,4.43
2022-11-06T03:28:32.325Z,3.95
2022-11-06T03:31:04.288Z,3.67
2022-11-06T03:33:38.930Z,4.00
2022-11-06T03:36:11.509Z,3.63
2022-11-06T03:38:42.742Z,3.83
2022-11-06T03:41:16.542Z,3.70
2022-11-06T03:43:49.159Z,3.72
2022-11-06T03:46:22.097Z,3.58
2022-11-06T03:48:54.138Z,3.70
2022-11-06T03:51:26.383Z,3.42
2022-11-06T03:53:59.244Z,3.90
2022-11-06T03:56:33.865Z,3.60
2022-11-06T03:59:05.567Z,4.28
2022-11-06T04:01:38.392Z,3.67
2022-11-06T04:04:11.660Z,3.63
2022-11-06T04:06:43.548Z,3.45
2022-11-06T04:09:33.096Z,3.65
2022-11-06T04:12:22.128Z,3.50
2022-11-06T04:14:55.950Z,3.40
2022-11-06T04:17:27.745Z,3.75
2022-11-06T04:19:59.420Z,3.47
2022-11-06T04:22:40.996Z,3.38
2022-11-06T04:25:37.771Z,3.58
2022-11-06T04:28:20.540Z,3.25
2022-11-06T04:30:58.390Z,3.67
2022-11-06T04:33:33.513Z,2.85
2022-11-06T04:36:09.877Z,3.08
2022-11-06T04:38:44.001Z,3.13
2022-11-06T04:41:19.739Z,3.22
2022-11-06T04:43:53.166Z,3.40
2022-11-06T04:46:28.264Z,3.03
2022-11-06T04:48:56.951Z,3.20
2022-11-06T04:51:30.046Z,3.33
2022-11-06T04:53:58.601Z,3.42
2022-11-06T04:56:34.652Z,3.38
2022-11-06T04:59:03.346Z,3.50
2022-11-06T05:01:33.174Z,3.33
2022-11-06T05:04:01.577Z,3.35
2022-11-06T05:06:30.437Z,3.30
2022-11-06T05:08:59.381Z,3.47
2022-11-06T05:11:27.468Z,3.30
2022-11-06T05:13:55.620Z,3.40
2022-11-06T05:16:24.091Z,3.70
2022-11-06T05:18:53.882Z,3.38
2022-11-06T05:21:39.602Z,3.67
2022-11-06T05:24:08.439Z,3.38
2022-11-06T05:26:36.630Z,3.63
2022-11-06T05:29:05.418Z,3.13
2022-11-06T05:31:33.913Z,3.50
2022-11-06T05:34:03.565Z,3.50
2022-11-06T05:36:31.669Z,3.10
2022-11-06T05:38:59.799Z,3.10
2022-11-06T05:41:28.103Z,3.20
2022-11-06T05:43:56.710Z,3.13
2022-11-06T05:46:47.125Z,3.05
2022-11-06T05:49:14.762Z,3.17
2022-11-06T05:51:42.894Z,3.65
2022-11-06T05:54:11.093Z,2.90
2022-11-06T05:56:39.349Z,3.15
2022-11-06T05:59:07.548Z,3.38
2022-11-06T06:01:36.010Z,3.10
2022-11-06T06:04:04.528Z,2.92
2022-11-06T06:06:34.668Z,2.92
2022-11-06T06:09:02.834Z,3.03
2022-11-06T06:11:31.181Z,2.88
2022-11-06T06:13:59.382Z,2.70
2022-11-06T06:16:27.644Z,3.25
2022-11-06T06:18:56.263Z,3.15
2022-11-06T06:21:24.458Z,3.30
2022-11-06T06:23:54.027Z,3.20
2022-11-06T06:26:22.396Z,2.65
2022-11-06T06:28:50.730Z,3.60
2022-11-06T06:31:18.850Z,3.00
2022-11-06T06:33:47.363Z,2.75
2022-11-06T06:36:15.911Z,3.00
2022-11-06T06:38:44.056Z,3.20
2022-11-06T06:41:13.508Z,2.85
2022-11-06T06:43:41.934Z,3.10
2022-11-06T06:46:10.400Z,2.90
2022-11-06T06:48:38.575Z,2.65
2022-11-06T06:51:08.000Z,2.70
2022-11-06T06:53:36.681Z,2.90
2022-11-06T06:56:05.203Z,2.80
2022-11-06T06:58:35.452Z,2.50
2022-11-06T07:01:04.730Z,2.90
2022-11-06T07:03:33.409Z,3.03
2022-11-06T07:06:01.804Z,2.95
2022-11-06T07:08:30.715Z,2.83
2022-11-06T07:11:02.594Z,2.75
2022-11-06T07:13:35.506Z,2.80
2022-11-06T07:18:35.367Z,3.08
2022-11-06T07:21:06.370Z,2.60
2022-11-06T07:23:35.240Z,2.67
2022-11-06T07:26:03.440Z,2.83
2022-11-06T07:28:31.987Z,2.53
2022-11-06T07:31:00.834Z,3.20
2022-11-06T07:33:30.676Z,2.60
2022-11-06T07:36:04.457Z,2.78
2022-11-06T07:38:34.783Z,2.20
2022-11-06T07:41:04.558Z,2.30
2022-11-06T07:43:33.288Z,2.30
2022-11-06T07:46:02.372Z,2.63
2022-11-06T07:48:32.884Z,2.35
2022-11-06T07:51:03.719Z,2.60
2022-11-06T07:53:32.514Z,2.30
2022-11-06T07:56:00.945Z,2.50
2022-11-06T07:58:29.618Z,2.75
2022-11-06T08:00:59.717Z,2.72
2022-11-06T08:03:30.291Z,2.20
2022-11-06T08:06:00.403Z,2.40
2022-11-06T08:08:29.636Z,2.35
2022-11-06T08:11:02.107Z,2.33
2022-11-06T08:13:30.559Z,2.50
2022-11-06T08:15:58.731Z,2.05
2022-11-06T08:18:26.922Z,2.22
2022-11-06T08:20:55.353Z,2.10
2022-11-06T08:23:25.050Z,2.20
2022-11-06T08:25:56.343Z,2.03
2022-11-06T08:28:24.657Z,2.58
2022-11-06T08:30:53.547Z,2.58
2022-11-06T08:33:22.546Z,2.35
2022-11-06T08:35:51.029Z,2.40
2022-11-06T08:38:19.193Z,2.00
2022-11-06T08:40:53.467Z,2.75
2022-11-06T08:43:24.254Z,2.25
2022-11-06T08:45:52.425Z,2.08
2022-11-06T08:48:20.585Z,2.35
2022-11-06T08:50:49.285Z,2.08
2022-11-06T08:53:17.944Z,2.40
2022-11-06T08:55:48.123Z,2.10
2022-11-06T08:58:16.518Z,1.75
2022-11-06T09:00:45.035Z,2.10
2022-11-06T09:03:16.246Z,2.13
2022-11-06T09:05:46.111Z,2.35
2022-11-06T09:08:16.127Z,1.90
2022-11-06T09:10:45.422Z,1.83
2022-11-06T09:13:15.428Z,2.00
2022-11-06T09:15:44.176Z,2.20
2022-11-06T09:18:12.982Z,2.40
2022-11-06T09:20:41.315Z,2.10
2022-11-06T09:23:10.967Z,2.15
2022-11-06T09:25:39.273Z,2.53
2022-11-06T09:28:07.560Z,1.90
2022-11-06T09:30:37.264Z,1.83
2022-11-06T09:33:10.604Z,2.30
2022-11-06T09:35:41.981Z,3.25
2022-11-06T09:38:13.405Z,2.25
2022-11-06T09:40:47.951Z,2.05
2022-11-06T09:43:58.185Z,2.40
2022-11-06T09:46:24.672Z,2.85
2022-11-06T09:49:00.348Z,2.10
2022-11-06T09:51:38.550Z,1.95
2022-11-06T09:54:14.532Z,2.38
2022-11-06T09:56:43.619Z,2.42
2022-11-06T09:59:15.978Z,2.50
2022-11-06T10:01:48.684Z,2.15
2022-11-06T10:04:37.581Z,2.00
2022-11-06T10:07:05.839Z,1.92
2022-11-06T10:09:35.013Z,2.30
2022-11-06T10:12:10.625Z,2.25
2022-11-06T10:14:59.125Z,1.90
2022-11-06T10:17:50.334Z,1.73
2022-11-06T10:20:26.767Z,2.00
2022-11-06T10:23:05.319Z,1.95
2022-11-06T10:25:51.911Z,1.92
2022-11-06T10:28:34.490Z,2.22
2022-11-06T10:31:12.279Z,1.65
2022-11-06T10:33:54.097Z,2.08
2022-11-06T10:36:25.739Z,2.35
2022-11-06T10:38:56.075Z,1.92
2022-11-06T10:41:28.340Z,2.17
2022-11-06T10:44:00.632Z,2.47
2022-11-06T10:46:33.416Z,2.25
2022-11-06T10:49:05.512Z,2.17
2022-11-06T10:51:58.762Z,2.13
2022-11-06T10:54:39.679Z,2.67
2022-11-06T10:57:24.580Z,2.20
2022-11-06T10:59:52.847Z,2.20
2022-11-06T11:02:27.556Z,2.30
2022-11-06T11:04:58.367Z,2.22
2022-11-06T11:07:31.136Z,2.53
2022-11-06T11:09:59.353Z,2.20
2022-11-06T11:12:29.615Z,2.47
2022-11-06T11:15:13.486Z,2.20
2022-11-06T11:17:43.448Z,2.33
2022-11-06T11:23:22.425Z,2.25
2022-11-06T11:25:53.038Z,2.55
2022-11-06T11:28:30.463Z,2.10
2022-11-06T11:31:07.362Z,2.63
2022-11-06T11:33:36.451Z,2.03
2022-11-06T11:36:06.796Z,2.70
2022-11-06T11:38:38.872Z,2.58
2022-11-06T11:41:08.951Z,3.00
2022-11-06T11:43:37.371Z,2.42
2022-11-06T11:46:21.697Z,2.88
2022-11-06T11:48:52.441Z,2.60
2022-11-06T11:51:38.743Z,2.80
2022-11-06T11:54:19.547Z,2.50
2022-11-06T11:57:07.605Z,2.85
2022-11-06T11:59:42.921Z,2.80
2022-11-06T12:02:25.418Z,2.47
2022-11-06T12:04:57.486Z,3.53
2022-11-06T12:07:29.197Z,3.00
2022-11-06T12:09:59.806Z,2.88
2022-11-06T12:12:32.251Z,3.03
2022-11-06T12:15:18.789Z,2.75
2022-11-06T12:17:52.112Z,2.80
2022-11-06T12:20:25.637Z,3.47
2022-11-06T12:22:57.319Z,3.40
2022-11-06T12:25:32.798Z,3.17
2022-11-06T12:28:03.542Z,2.83
2022-11-06T12:30:34.362Z,2.65
2022-11-06T12:33:11.494Z,3.17
2022-11-06T12:35:43.630Z,2.85
2022-11-06T12:38:20.669Z,3.25
2022-11-06T12:40:55.710Z,2.95
2022-11-06T12:43:31.127Z,3.30
2022-11-06T12:46:09.956Z,2.90
2022-11-06T12:49:05.585Z,3.25
2022-11-06T12:51:45.323Z,3.42
2022-11-06T12:54:34.664Z,3.10
2022-11-06T12:57:17.418Z,2.88
2022-11-06T12:59:58.064Z,2.60
2022-11-06T13:02:37.569Z,2.72
2022-11-06T13:05:15.276Z,3.03
2022-11-06T13:08:16.806Z,3.03
2022-11-06T13:10:58.437Z,2.60
2022-11-06T13:13:40.229Z,3.05
2022-11-06T13:16:17.633Z,2.67
2022-11-06T13:18:53.183Z,2.90
2022-11-06T13:21:32.084Z,2.70
2022-11-06T13:24:04.034Z,3.40
2022-11-06T13:26:42.120Z,3.40
2022-11-06T13:29:16.069Z,2.90
2022-11-06T13:31:48.717Z,2.50
2022-11-06T13:34:21.130Z,2.20
2022-11-06T13:36:50.106Z,2.60
2022-11-06T13:39:23.543Z,2.80
2022-11-06T13:41:53.674Z,2.90
2022-11-06T13:44:24.751Z,2.80
2022-11-06T13:46:57.982Z,2.67
2022-11-06T13:49:33.233Z,2.65
2022-11-06T13:52:03.785Z,2.55
2022-11-06T13:54:47.745Z,2.63
2022-11-06T14:00:23.798Z,2.60
2022-11-06T14:03:26.038Z,3.33
2022-11-06T14:05:58.481Z,2.35
2022-11-06T14:08:31.764Z,8.02
2022-11-06T14:11:02.971Z,4.82
2022-11-06T14:13:34.103Z,4.70
2022-11-06T14:16:07.490Z,3.63
2022-11-06T14:18:36.687Z,3.95
2022-11-06T14:21:49.990Z,4.80
2022-11-06T14:24:39.283Z,6.82
2022-11-06T14:27:12.296Z,2.97
2022-11-06T14:30:00.131Z,3.10
2022-11-06T14:32:44.691Z,3.55
2022-11-06T14:35:52.274Z,3.45
2022-11-06T14:38:37.692Z,5.30
2022-11-06T14:41:50.970Z,6.93
2022-11-06T14:44:36.594Z,4.15
2022-11-06T14:47:09.492Z,5.63
2022-11-06T14:49:44.006Z,4.45
2022-11-06T14:52:15.039Z,3.75
2022-11-06T14:54:51.916Z,5.97
2022-11-06T14:57:37.032Z,7.63
2022-11-06T15:00:06.438Z,7.07
2022-11-06T15:02:37.379Z,7.82
2022-11-06T15:05:14.016Z,5.97
2022-11-06T15:08:06.026Z,6.10
2022-11-06T15:10:52.413Z,5.43
2022-11-06T15:13:33.722Z,5.82
2022-11-06T15:16:13.512Z,7.20
2022-11-06T15:18:46.100Z,5.63
2022-11-06T15:21:24.133Z,5.32
2022-11-06T15:24:04.029Z,5.40
2022-11-06T15:26:38.137Z,9.27
2022-11-06T15:29:19.280Z,6.80
2022-11-06T15:31:49.986Z,5.40
2022-11-06T15:34:24.887Z,4.60
2022-11-06T15:36:58.391Z,5.20
2022-11-06T15:39:39.294Z,4.50
2022-11-06T15:42:10.210Z,4.50
2022-11-06T15:44:41.759Z,4.40
2022-11-06T15:47:21.786Z,4.10
2022-11-06T15:49:50.230Z,4.88
2022-11-06T15:52:20.230Z,4.20
2022-11-06T15:54:49.365Z,4.22
2022-11-06T15:57:21.154Z,4.20
2022-11-06T15:59:49.482Z,4.30
2022-11-06T16:02:20.474Z,4.15
2022-11-06T16:04:49.816Z,4.35
2022-11-06T16:07:20.808Z,4.20
2022-11-06T16:09:51.684Z,5.00
2022-11-06T16:12:20.422Z,3.60
2022-11-06T16:14:48.539Z,3.45
2022-11-06T16:17:24.247Z,2.90
2022-11-06T16:19:55.885Z,3.15
2022-11-06T16:22:31.649Z,3.40
2022-11-06T16:25:02.758Z,2.97
2022-11-06T16:27:35.546Z,2.88
2022-11-06T16:30:05.124Z,3.20
2022-11-06T16:32:39.581Z,3.25
2022-11-06T16:35:32.478Z,3.33
2022-11-06T16:38:42.480Z,4.22
2022-11-06T16:41:13.233Z,3.70
2022-11-06T16:43:41.840Z,7.35
2022-11-06T16:46:10.190Z,5.07
2022-11-06T16:48:40.459Z,3.90
2022-11-06T16:51:12.881Z,4.00
2022-11-06T16:54:01.112Z,3.60
2022-11-06T16:56:31.879Z,4.20
2022-11-06T16:59:04.934Z,4.53
2022-11-06T17:01:41.851Z,3.63
2022-11-06T17:04:20.548Z,4.50
2022-11-06T17:06:49.429Z,4.03
2022-11-06T17:09:31.943Z,4.50
2022-11-06T17:12:01.488Z,5.03
2022-11-06T17:14:30.625Z,5.00
2022-11-06T17:17:00.301Z,4.65
2022-11-06T17:19:29.802Z,5.38
2022-11-06T17:21:58.326Z,5.25
2022-11-06T17:24:42.143Z,5.32
2022-11-06T17:27:12.310Z,5.43
2022-11-06T17:29:40.412Z,5.35
2022-11-06T17:32:08.557Z,5.47
2022-11-06T17:34:37.761Z,6.05
2022-11-06T17:37:05.893Z,6.00
2022-11-06T17:39:34.162Z,6.35
2022-11-06T17:42:02.435Z,6.03
2022-11-06T17:44:31.902Z,6.70
2022-11-06T17:47:00.052Z,7.38
2022-11-06T17:49:28.394Z,7.45
2022-11-06T17:52:00.420Z,7.85
2022-11-06T17:54:32.262Z,8.05
2022-11-06T17:57:02.724Z,7.22
2022-11-06T17:59:33.093Z,8.10
2022-11-06T18:02:01.705Z,7.97
2022-11-06T18:04:31.636Z,8.27
2022-11-06T18:07:00.234Z,8.98
2022-11-06T18:09:28.683Z,8.73
2022-11-06T18:11:57.362Z,8.23
2022-11-06T18:14:27.324Z,8.63
2022-11-06T18:16:56.961Z,9.25
2022-11-06T18:19:26.644Z,8.30
2022-11-06T18:21:55.351Z,8.55
2022-11-06T18:24:23.771Z,8.75
2022-11-06T18:26:52.051Z,8.77
2022-11-06T18:29:20.610Z,8.70
2022-11-06T18:31:48.743Z,8.82
2022-11-06T18:34:21.295Z,8.73
2022-11-06T18:36:50.498Z,8.65
2022-11-06T18:39:19.424Z,8.63
2022-11-06T18:41:47.711Z,9.00
2022-11-06T18:44:18.238Z,8.68
2022-11-06T18:46:46.909Z,10.18
2022-11-06T18:49:15.193Z,8.80
2022-11-06T18:51:45.071Z,9.02
2022-11-06T18:54:14.751Z,9.80
2022-11-06T18:56:43.176Z,9.25
2022-11-06T18:59:16.604Z,9.10
2022-11-06T19:01:44.893Z,9.30
2022-11-06T19:04:13.606Z,9.65
2022-11-06T19:06:42.636Z,9.43
2022-11-06T19:09:12.309Z,9.82
2022-11-06T19:11:40.483Z,9.65
2022-11-06T19:14:08.986Z,9.77
2022-11-06T19:16:37.507Z,9.57
2022-11-06T19:19:06.716Z,10.10
2022-11-06T19:21:35.939Z,10.02
2022-11-06T19:24:05.849Z,9.73
2022-11-06T19:26:36.911Z,9.63
2022-11-06T19:29:07.589Z,8.45
2022-11-06T19:31:37.408Z,8.70
2022-11-06T19:34:07.751Z,8.75
2022-11-06T19:36:36.596Z,9.00
2022-11-06T19:39:05.745Z,8.68
2022-11-06T19:41:35.390Z,7.78
2022-11-06T19:44:03.513Z,7.80
2022-11-06T19:46:35.989Z,8.68
2022-11-06T19:49:05.512Z,9.20
2022-11-06T19:51:34.434Z,8.27
2022-11-06T19:54:02.651Z,8.48
2022-11-06T19:56:30.945Z,8.73
2022-11-06T19:59:01.309Z,8.02
2022-11-06T20:01:30.140Z,7.68
2022-11-06T20:03:58.635Z,7.90
2022-11-06T20:06:27.681Z,8.30
2022-11-06T20:08:56.522Z,7.70
2022-11-06T20:11:24.753Z,7.72
2022-11-06T20:13:53.168Z,7.60
2022-11-06T20:16:23.442Z,7.78
2022-11-06T20:18:52.769Z,7.80
2022-11-06T20:21:21.162Z,7.50
2022-11-06T20:23:49.609Z,8.77
2022-11-06T20:26:18.085Z,8.38
2022-11-06T20:28:48.647Z,7.68
2022-11-06T20:31:19.438Z,7.72
2022-11-06T20:33:50.229Z,8.23
2022-11-06T20:36:20.566Z,7.78
2022-11-06T20:38:48.946Z,7.40
2022-11-06T20:41:18.495Z,7.70
2022-11-06T20:43:47.226Z,7.53
2022-11-06T20:46:18.125Z,7.68
2022-11-06T20:48:48.509Z,8.13
2022-11-06T20:51:18.802Z,7.75
2022-11-06T20:53:47.694Z,7.63
2022-11-06T20:56:21.754Z,7.18
2022-11-06T20:58:50.467Z,7.65
2022-11-06T21:01:20.767Z,8.52
2022-11-06T21:03:51.490Z,8.23
2022-11-06T21:06:21.899Z,8.27
2022-11-06T21:08:50.382Z,7.82
2022-11-06T21:11:20.874Z,7.63
2022-11-06T21:13:50.746Z,7.50
2022-11-06T21:16:20.911Z,7.25
2022-11-06T21:18:51.521Z,7.68
2022-11-06T21:21:21.577Z,8.07
2022-11-06T21:23:50.602Z,7.22
2022-11-06T21:26:20.457Z,6.30
2022-11-06T21:28:48.922Z,6.63
2022-11-06T21:31:18.862Z,6.95
2022-11-06T21:33:48.987Z,6.78
2022-11-06T21:36:20.675Z,6.75
2022-11-06T21:38:49.323Z,6.20
2022-11-06T21:41:19.726Z,6.28
2022-11-06T21:43:49.210Z,6.55
2022-11-06T21:46:18.932Z,6.53
2022-11-06T21:48:48.297Z,7.05
2022-11-06T21:51:19.679Z,8.73
2022-11-06T21:54:05.903Z,7.32
2022-11-06T21:56:34.807Z,6.78
2022-11-06T21:59:04.607Z,8.23
2022-11-06T22:01:33.524Z,6.70
2022-11-06T22:04:02.272Z,7.03
2022-11-06T22:06:32.065Z,6.20
2022-11-06T22:09:01.549Z,5.97
2022-11-06T22:11:32.055Z,6.28
2022-11-06T22:14:02.107Z,6.35
2022-11-06T22:16:32.809Z,5.55
2022-11-06T22:19:01.373Z,6.00
2022-11-06T22:21:31.933Z,6.35
2022-11-06T22:24:00.329Z,5.75
2022-11-06T22:26:30.770Z,5.93
2022-11-06T22:29:00.805Z,6.03
2022-11-06T22:31:29.863Z,5.40
2022-11-06T22:33:58.721Z,5.07
2022-11-06T22:36:27.059Z,4.80
2022-11-06T22:38:57.769Z,5.07
2022-11-06T22:41:26.528Z,4.90
2022-11-06T22:43:59.325Z,4.70
2022-11-06T22:46:28.762Z,4.50
2022-11-06T22:48:57.161Z,4.20
2022-11-06T22:51:27.083Z,4.18
2022-11-06T22:53:57.427Z,4.35
2022-11-06T22:56:27.713Z,4.30
2022-11-06T22:58:57.091Z,3.78
2022-11-06T23:01:27.197Z,4.57
2022-11-06T23:03:56.899Z,3.95
2022-11-06T23:06:26.385Z,3.72
2022-11-06T23:08:56.493Z,4.13
2022-11-06T23:11:26.110Z,4.03
2022-11-06T23:13:54.661Z,3.83
2022-11-06T23:16:45.039Z,4.00
2022-11-06T23:19:15.744Z,5.00
2022-11-06T23:21:45.016Z,4.65
2022-11-06T23:24:14.953Z,4.80
2022-11-06T23:26:43.847Z,4.78
2022-11-06T23:29:12.065Z,5.07
2022-11-06T23:31:41.432Z,4.60
2022-11-06T23:34:09.850Z,5.32
2022-11-06T23:36:38.011Z,4.88
2022-11-06T23:39:06.797Z,5.10
2022-11-06T23:41:47.075Z,5.15
2022-11-06T23:44:48.668Z,5.65
2022-11-06T23:47:16.819Z,5.10
2022-11-06T23:49:45.024Z,5.75
2022-11-06T23:52:13.263Z,6.07
2022-11-06T23:54:41.355Z,5.60
2022-11-06T23:57:11.456Z,4.60
2022-11-06T23:59:39.604Z,5.00
